createdAt,value
2023-05-14T00:00:00.916Z,102079.78
2023-05-14T00:02:30.262Z,102082.41
2023-05-14T00:04:58.174Z,102089.78
2023-05-14T00:07:30.713Z,102084.59
2023-05-14T00:09:58.972Z,102084.78
2023-05-14T00:12:26.810Z,102085.31
2023-05-14T00:14:54.618Z,102082.41
2023-05-14T00:17:22.400Z,102082.41
2023-05-14T00:19:51.449Z,102083.63
2023-05-14T00:22:19.259Z,102080.16
2023-05-14T00:24:47.016Z,102078.78
2023-05-14T00:27:14.841Z,102076.78
2023-05-14T00:29:42.523Z,102066.47
2023-05-14T00:32:10.304Z,102068.00
2023-05-14T00:34:38.068Z,102060.97
2023-05-14T00:37:07.307Z,102062.66
2023-05-14T00:39:35.245Z,102062.19
2023-05-14T00:42:03.208Z,102053.75
2023-05-14T00:44:31.028Z,102053.56
2023-05-14T00:47:00.028Z,102055.97
2023-05-14T00:49:29.265Z,102053.06
2023-05-14T00:51:59.056Z,102049.09
2023-05-14T00:54:29.955Z,102050.97
2023-05-14T00:56:58.674Z,102036.03
2023-05-14T00:59:26.912Z,102038.13
2023-05-14T01:01:55.555Z,102035.53
2023-05-14T01:04:23.529Z,102031.22
2023-05-14T01:06:58.875Z,102028.31
2023-05-14T01:09:33.721Z,102029.38
2023-05-14T01:12:08.770Z,102022.47
2023-05-14T01:14:44.166Z,102023.47
2023-05-14T01:17:13.259Z,102021.59
2023-05-14T01:19:44.435Z,102020.06
2023-05-14T01:22:14.477Z,102019.53
2023-05-14T01:24:42.221Z,102017.44
2023-05-14T01:27:17.691Z,102012.97
2023-05-14T01:29:51.166Z,102009.50
2023-05-14T01:32:23.163Z,102017.44
2023-05-14T01:34:53.157Z,102006.94
2023-05-14T01:37:23.702Z,102007.97
2023-05-14T01:39:52.934Z,102011.44
2023-05-14T01:42:21.080Z,102017.44
2023-05-14T01:44:48.864Z,102016.09
2023-05-14T01:47:19.383Z,102008.34
2023-05-14T01:49:47.154Z,102008.03
2023-05-14T01:52:14.919Z,102008.19
2023-05-14T01:54:44.020Z,102018.50
2023-05-14T01:57:11.785Z,102013.19
2023-05-14T01:59:39.524Z,102016.28
2023-05-14T02:02:07.416Z,102018.03
2023-05-14T02:04:36.353Z,102011.50
2023-05-14T02:07:04.910Z,102005.34
2023-05-14T02:09:32.627Z,102008.59
2023-05-14T02:12:01.762Z,102002.75
2023-05-14T02:14:29.600Z,102001.72
2023-05-14T02:16:57.726Z,102003.97
2023-05-14T02:19:25.599Z,101999.50
2023-05-14T02:21:53.420Z,101999.31
2023-05-14T02:24:21.415Z,101988.50
2023-05-14T02:26:49.217Z,101984.59
2023-05-14T02:29:18.317Z,101986.78
2023-05-14T02:31:46.242Z,101979.41
2023-05-14T02:34:14.131Z,101975.44
2023-05-14T02:36:42.200Z,101979.41
2023-05-14T02:39:10.043Z,101977.88
2023-05-14T02:41:37.867Z,101975.81
2023-05-14T02:44:06.579Z,101977.00
2023-05-14T02:46:36.242Z,101973.91
2023-05-14T02:49:04.277Z,101978.03
2023-05-14T02:51:32.337Z,101971.69
2023-05-14T02:54:00.189Z,101964.28
2023-05-14T02:56:27.915Z,101965.50
2023-05-14T02:58:55.744Z,101962.75
2023-05-14T03:01:24.202Z,101965.31
2023-05-14T03:03:53.725Z,101958.97
2023-05-14T03:06:21.641Z,101953.47
2023-05-14T03:08:49.419Z,101950.00
2023-05-14T03:11:17.167Z,101941.97
2023-05-14T03:13:44.920Z,101936.78
2023-05-14T03:16:12.631Z,101933.34
2023-05-14T03:18:40.789Z,101933.00
2023-05-14T03:21:11.656Z,101929.91
2023-05-14T03:23:39.578Z,101930.56
2023-05-14T03:26:07.434Z,101924.03
2023-05-14T03:28:35.352Z,101933.97
2023-05-14T03:31:03.276Z,101926.59
2023-05-14T03:33:31.453Z,101930.50
2023-05-14T03:35:59.251Z,101923.31
2023-05-14T03:38:28.547Z,101926.44
2023-05-14T03:40:56.562Z,101928.13
2023-05-14T03:43:24.438Z,101933.66
2023-05-14T03:45:53.121Z,101932.44
2023-05-14T03:48:21.603Z,101933.50
2023-05-14T03:50:49.632Z,101936.41
2023-05-14T03:53:17.849Z,101937.63
2023-05-14T03:55:48.501Z,101933.16
2023-05-14T03:58:17.643Z,101939.38
2023-05-14T04:00:45.608Z,101937.84
2023-05-14T04:03:13.373Z,101947.28
2023-05-14T04:05:41.331Z,101949.53
2023-05-14T04:08:09.141Z,101954.88
2023-05-14T04:10:36.881Z,101947.66
2023-05-14T04:13:05.963Z,101945.75
2023-05-14T04:15:39.208Z,101945.25
2023-05-14T04:18:07.016Z,101945.06
2023-05-14T04:20:34.905Z,101949.69
2023-05-14T04:23:02.831Z,101944.38
2023-05-14T04:25:30.763Z,101944.38
2023-05-14T04:27:58.629Z,101942.31
2023-05-14T04:30:27.831Z,101956.41
2023-05-14T04:32:55.718Z,101960.53
2023-05-14T04:35:25.026Z,101956.56
2023-05-14T04:37:53.212Z,101961.22
2023-05-14T04:40:22.855Z,101955.03
2023-05-14T04:42:50.916Z,101958.66
2023-05-14T04:45:18.807Z,101959.69
2023-05-14T04:47:47.950Z,101955.56
2023-05-14T04:50:16.483Z,101953.34
2023-05-14T04:52:44.296Z,101952.97
2023-05-14T04:55:12.060Z,101949.03
2023-05-14T04:57:39.876Z,101943.88
2023-05-14T05:00:10.002Z,101945.06
2023-05-14T05:02:37.881Z,101935.94
2023-05-14T05:05:07.558Z,101940.25
2023-05-14T05:07:35.549Z,101938.53
2023-05-14T05:10:03.420Z,101945.41
2023-05-14T05:12:31.133Z,101941.81
2023-05-14T05:14:58.955Z,101946.94
2023-05-14T05:17:26.808Z,101937.13
2023-05-14T05:19:54.500Z,101932.16
2023-05-14T05:22:24.319Z,101945.72
2023-05-14T05:24:52.105Z,101944.16
2023-05-14T05:27:21.035Z,101955.16
2023-05-14T05:29:48.769Z,101955.66
2023-05-14T05:32:16.644Z,101957.56
2023-05-14T05:34:44.627Z,101953.78
2023-05-14T05:37:14.131Z,101947.81
2023-05-14T05:39:43.264Z,101962.75
2023-05-14T05:42:11.242Z,101954.50
2023-05-14T05:44:39.038Z,101956.59
2023-05-14T05:47:07.202Z,101951.94
2023-05-14T05:49:36.869Z,101954.31
2023-05-14T05:52:05.117Z,101947.63
2023-05-14T05:54:33.340Z,101944.19
2023-05-14T05:57:02.561Z,101954.28
2023-05-14T05:59:30.611Z,101955.00
2023-05-14T06:01:58.452Z,101949.13
2023-05-14T06:04:26.280Z,101943.97
2023-05-14T06:06:54.025Z,101951.69
2023-05-14T06:09:21.807Z,101951.31
2023-05-14T06:11:49.702Z,101947.38
2023-05-14T06:14:18.905Z,101945.44
2023-05-14T06:16:46.862Z,101940.94
2023-05-14T06:19:14.824Z,101946.03
2023-05-14T06:21:42.705Z,101942.38
2023-05-14T06:24:10.893Z,101939.59
2023-05-14T06:26:38.646Z,101939.59
2023-05-14T06:29:06.595Z,101936.81
2023-05-14T06:31:35.802Z,101937.09
2023-05-14T06:34:03.680Z,101935.50
2023-05-14T06:36:31.403Z,101934.78
2023-05-14T06:38:59.126Z,101938.50
2023-05-14T06:41:27.224Z,101941.38
2023-05-14T06:43:55.521Z,101947.63
2023-05-14T06:46:23.330Z,101942.06
2023-05-14T06:48:52.455Z,101943.78
2023-05-14T06:51:20.228Z,101940.84
2023-05-14T06:53:48.856Z,101948.44
2023-05-14T06:56:16.697Z,101924.31
2023-05-14T06:58:44.380Z,101925.19
2023-05-14T07:01:12.098Z,101932.22
2023-05-14T07:03:39.918Z,101933.94
2023-05-14T07:06:09.940Z,101936.19
2023-05-14T07:08:38.967Z,101937.06
2023-05-14T07:11:06.757Z,101930.03
2023-05-14T07:13:34.659Z,101930.69
2023-05-14T07:16:02.469Z,101920.69
2023-05-14T07:18:31.275Z,101916.59
2023-05-14T07:20:59.143Z,101930.19
2023-05-14T07:23:28.440Z,101919.97
2023-05-14T07:25:56.521Z,101927.84
2023-05-14T07:28:24.372Z,101921.81
2023-05-14T07:30:52.407Z,101934.22
2023-05-14T07:33:20.337Z,101928.06
2023-05-14T07:35:48.127Z,101923.41
2023-05-14T07:38:16.397Z,101917.09
2023-05-14T07:40:45.536Z,101917.94
2023-05-14T07:43:13.333Z,101919.59
2023-05-14T07:45:41.332Z,101912.31
2023-05-14T07:48:09.312Z,101924.69
2023-05-14T07:50:38.434Z,101916.91
2023-05-14T07:53:06.215Z,101934.59
2023-05-14T07:55:34.033Z,101927.25
2023-05-14T07:58:03.193Z,101935.00
2023-05-14T08:00:30.940Z,101928.31
2023-05-14T08:02:58.852Z,101920.81
2023-05-14T08:05:26.758Z,101921.50
2023-05-14T08:07:54.591Z,101926.66
2023-05-14T08:10:22.932Z,101921.56
2023-05-14T08:12:50.914Z,101930.31
2023-05-14T08:15:20.160Z,101918.81
2023-05-14T08:17:48.288Z,101926.00
2023-05-14T08:20:16.694Z,101925.34
2023-05-14T08:22:44.518Z,101921.19
2023-05-14T08:25:12.530Z,101927.34
2023-05-14T08:27:40.343Z,101912.00
2023-05-14T08:30:09.146Z,101911.63
2023-05-14T08:32:39.413Z,101917.53
2023-05-14T08:35:08.296Z,101912.91
2023-05-14T08:37:36.063Z,101910.44
2023-05-14T08:40:04.668Z,101907.97
2023-05-14T08:42:33.345Z,101907.69
2023-05-14T08:45:03.637Z,101906.09
2023-05-14T08:47:32.431Z,101903.44
2023-05-14T08:50:05.394Z,101911.03
2023-05-14T08:52:35.024Z,101914.53
2023-05-14T08:55:05.227Z,101921.66
2023-05-14T08:57:34.218Z,101908.34
2023-05-14T09:00:08.163Z,101909.88
2023-05-14T09:02:37.718Z,101910.00
2023-05-14T09:05:09.233Z,101907.91
2023-05-14T09:07:37.239Z,101902.47
2023-05-14T09:10:05.784Z,101910.50
2023-05-14T09:12:33.936Z,101907.94
2023-05-14T09:15:01.852Z,101900.50
2023-05-14T09:17:29.838Z,101900.66
2023-05-14T09:19:58.026Z,101892.41
2023-05-14T09:22:32.351Z,101901.44
2023-05-14T09:25:05.549Z,101895.16
2023-05-14T09:27:34.271Z,101896.88
2023-05-14T09:30:09.868Z,101899.72
2023-05-14T09:32:39.080Z,101894.22
2023-05-14T09:35:18.140Z,101897.03
2023-05-14T09:37:48.645Z,101886.47
2023-05-14T09:40:18.061Z,101886.47
2023-05-14T09:42:46.505Z,101884.41
2023-05-14T09:45:14.480Z,101881.13
2023-05-14T09:47:42.531Z,101877.78
2023-05-14T09:50:10.871Z,101876.47
2023-05-14T09:52:39.531Z,101871.00
2023-05-14T09:55:09.787Z,101864.25
2023-05-14T09:57:37.755Z,101865.78
2023-05-14T10:00:06.801Z,101868.00
2023-05-14T10:02:38.853Z,101864.47
2023-05-14T10:05:09.394Z,101862.91
2023-05-14T10:07:42.096Z,101865.34
2023-05-14T10:10:16.817Z,101864.16
2023-05-14T10:12:50.602Z,101854.22
2023-05-14T10:15:23.502Z,101858.50
2023-05-14T10:17:57.365Z,101850.25
2023-05-14T10:20:27.924Z,101852.84
2023-05-14T10:22:56.603Z,101848.59
2023-05-14T10:25:26.426Z,101855.44
2023-05-14T10:27:55.072Z,101855.25
2023-05-14T10:30:24.093Z,101853.53
2023-05-14T10:33:07.910Z,101841.16
2023-05-14T10:35:57.205Z,101843.88
2023-05-14T10:38:28.108Z,101831.06
2023-05-14T10:41:00.447Z,101820.31
2023-05-14T10:43:30.793Z,101828.16
2023-05-14T10:45:59.259Z,101830.38
2023-05-14T10:48:27.560Z,101823.19
2023-05-14T10:50:57.771Z,101820.91
2023-05-14T10:53:35.663Z,101819.94
2023-05-14T10:56:10.054Z,101807.19
2023-05-14T10:58:39.159Z,101812.97
2023-05-14T11:01:08.204Z,101813.06
2023-05-14T11:03:42.675Z,101813.53
2023-05-14T11:06:11.698Z,101805.44
2023-05-14T11:08:40.487Z,101800.75
2023-05-14T11:11:10.777Z,101808.44
2023-05-14T11:13:39.424Z,101801.63
2023-05-14T11:18:40.724Z,101790.66
2023-05-14T11:21:08.660Z,101781.75
2023-05-14T11:23:36.423Z,101791.13
2023-05-14T11:26:04.437Z,101779.00
2023-05-14T11:28:33.639Z,101779.66
2023-05-14T11:31:01.514Z,101775.81
2023-05-14T11:33:29.377Z,101773.91
2023-05-14T11:35:57.129Z,101775.63
2023-05-14T11:38:25.021Z,101770.75
2023-05-14T11:40:54.121Z,101768.63
2023-05-14T11:43:23.786Z,101774.41
2023-05-14T11:45:54.925Z,101773.09
2023-05-14T11:48:24.248Z,101764.78
2023-05-14T11:50:53.652Z,101775.25
2023-05-14T11:53:25.943Z,101765.22
2023-05-14T11:55:55.296Z,101765.22
2023-05-14T11:58:23.178Z,101763.94
2023-05-14T12:00:53.351Z,101765.47
2023-05-14T12:03:25.425Z,101761.84
2023-05-14T12:05:58.184Z,101760.34
2023-05-14T12:08:28.767Z,101763.94
2023-05-14T12:10:57.084Z,101746.91
2023-05-14T12:13:27.649Z,101749.03
2023-05-14T12:15:58.321Z,101740.31
2023-05-14T12:18:28.202Z,101745.66
2023-05-14T12:20:56.739Z,101737.97
2023-05-14T12:23:27.688Z,101740.72
2023-05-14T12:25:55.619Z,101742.22
2023-05-14T12:28:24.613Z,101735.59
2023-05-14T12:30:59.057Z,101736.44
2023-05-14T12:33:28.541Z,101733.06
2023-05-14T12:36:09.953Z,101729.84
2023-05-14T12:38:41.906Z,101716.41
2023-05-14T12:41:09.689Z,101724.72
2023-05-14T12:43:37.554Z,101712.78
2023-05-14T12:46:06.852Z,101720.66
2023-05-14T12:48:34.715Z,101718.94
2023-05-14T12:51:02.573Z,101717.69
2023-05-14T12:53:30.309Z,101711.69
2023-05-14T12:55:58.059Z,101711.91
2023-05-14T12:58:25.986Z,101707.00
2023-05-14T13:00:53.801Z,101709.50
2023-05-14T13:03:23.298Z,101702.88
2023-05-14T13:05:51.995Z,101693.03
2023-05-14T13:08:21.552Z,101695.53
2023-05-14T13:10:49.534Z,101691.72
2023-05-14T13:13:17.369Z,101690.19
2023-05-14T13:15:46.741Z,101692.13
2023-05-14T13:18:14.769Z,101685.50
2023-05-14T13:20:43.892Z,101684.66
2023-05-14T13:23:11.659Z,101679.56
2023-05-14T13:25:39.865Z,101686.13
2023-05-14T13:28:10.650Z,101679.88
2023-05-14T13:30:39.322Z,101681.75
2023-05-14T13:33:07.542Z,101681.09
2023-05-14T13:35:35.598Z,101669.59
2023-05-14T13:38:04.800Z,101682.09
2023-05-14T13:40:32.617Z,101676.09
2023-05-14T13:43:00.450Z,101668.41
2023-05-14T13:45:28.329Z,101681.19
2023-05-14T13:47:56.638Z,101684.22
2023-05-14T13:50:24.494Z,101667.59
2023-05-14T13:52:52.224Z,101677.19
2023-05-14T13:55:21.412Z,101681.22
2023-05-14T13:57:49.340Z,101678.28
2023-05-14T14:00:17.852Z,101678.72
2023-05-14T14:02:45.716Z,101678.28
2023-05-14T14:05:13.488Z,101678.66
2023-05-14T14:07:41.883Z,101673.09
2023-05-14T14:10:10.944Z,101670.94
2023-05-14T14:12:40.618Z,101678.22
2023-05-14T14:15:09.421Z,101667.97
2023-05-14T14:17:37.902Z,101671.75
2023-05-14T14:20:08.130Z,101665.53
2023-05-14T14:22:36.091Z,101656.78
2023-05-14T14:25:04.113Z,101655.81
2023-05-14T14:27:33.979Z,101655.94
2023-05-14T14:30:05.147Z,101646.63
2023-05-14T14:36:24.551Z,101652.09
2023-05-14T14:39:31.837Z,101644.84
2023-05-14T14:42:09.217Z,101647.44
2023-05-14T14:45:21.325Z,101643.66
2023-05-14T14:48:25.934Z,101637.59
2023-05-14T14:50:54.219Z,101638.66
2023-05-14T14:53:22.275Z,101643.97
2023-05-14T14:55:50.190Z,101637.34
2023-05-14T14:58:19.415Z,101644.16
2023-05-14T15:00:47.675Z,101632.84
2023-05-14T15:03:16.465Z,101642.88
2023-05-14T15:05:46.047Z,101639.94
2023-05-14T15:08:13.863Z,101632.69
2023-05-14T15:10:41.969Z,101636.94
2023-05-14T15:13:11.153Z,101638.81
2023-05-14T15:15:39.364Z,101638.03
2023-05-14T15:18:07.362Z,101641.59
2023-05-14T15:20:35.232Z,101639.47
2023-05-14T15:23:04.497Z,101626.22
2023-05-14T15:25:32.305Z,101637.75
2023-05-14T15:28:00.083Z,101628.59
2023-05-14T15:30:27.995Z,101627.16
2023-05-14T15:32:56.786Z,101626.22
2023-05-14T15:35:25.180Z,101631.34
2023-05-14T15:37:56.927Z,101633.72
2023-05-14T15:40:27.926Z,101633.75
2023-05-14T15:42:55.888Z,101629.31
2023-05-14T15:45:23.842Z,101638.06
2023-05-14T15:47:51.640Z,101631.41
2023-05-14T15:50:20.766Z,101623.75
2023-05-14T15:52:48.891Z,101614.56
2023-05-14T15:55:20.157Z,101621.16
2023-05-14T15:57:49.302Z,101625.00
2023-05-14T16:00:18.151Z,101622.66
2023-05-14T16:02:46.157Z,101627.16
2023-05-14T16:05:14.870Z,101627.81
2023-05-14T16:07:43.129Z,101625.06
2023-05-14T16:10:11.558Z,101630.38
2023-05-14T16:12:40.077Z,101626.75
2023-05-14T16:15:10.496Z,101641.47
2023-05-14T16:17:38.677Z,101628.22
2023-05-14T16:20:07.417Z,101627.38
2023-05-14T16:22:36.227Z,101630.13
2023-05-14T16:25:06.112Z,101630.78
2023-05-14T16:27:33.948Z,101633.56
2023-05-14T16:30:01.801Z,101635.25
2023-05-14T16:32:31.104Z,101637.97
2023-05-14T16:34:58.849Z,101638.38
2023-05-14T16:37:26.661Z,101637.53
2023-05-14T16:39:54.852Z,101642.00
2023-05-14T16:42:22.614Z,101640.38
2023-05-14T16:44:50.498Z,101637.44
2023-05-14T16:47:18.472Z,101643.38
2023-05-14T16:49:47.602Z,101647.28
2023-05-14T16:52:15.503Z,101647.03
2023-05-14T16:54:43.316Z,101635.78
2023-05-14T16:57:11.172Z,101645.13
2023-05-14T16:59:39.060Z,101636.03
2023-05-14T17:02:07.155Z,101638.28
2023-05-14T17:07:07.745Z,101640.94
2023-05-14T17:09:35.573Z,101640.13
2023-05-14T17:12:04.253Z,101640.53
2023-05-14T17:14:32.041Z,101642.75
2023-05-14T17:16:59.818Z,101642.66
2023-05-14T17:19:27.569Z,101655.56
2023-05-14T17:21:55.536Z,101657.03
2023-05-14T17:24:24.733Z,101658.53
2023-05-14T17:26:52.458Z,101655.06
2023-05-14T17:29:21.270Z,101651.31
2023-05-14T17:31:49.420Z,101659.44
2023-05-14T17:34:17.670Z,101647.78
2023-05-14T17:36:45.449Z,101645.47
2023-05-14T17:39:13.296Z,101640.22
2023-05-14T17:41:42.748Z,101637.31
2023-05-14T17:44:12.847Z,101639.59
2023-05-14T17:46:41.590Z,101637.06
2023-05-14T17:49:09.580Z,101648.75
2023-05-14T17:51:37.530Z,101651.72
2023-05-14T17:54:05.512Z,101651.75
2023-05-14T17:56:33.530Z,101646.22
2023-05-14T17:59:02.848Z,101658.09
2023-05-14T18:01:30.813Z,101659.75
2023-05-14T18:03:58.692Z,101660.09
2023-05-14T18:06:26.590Z,101659.75
2023-05-14T18:08:54.406Z,101667.06
2023-05-14T18:11:22.144Z,101673.06
2023-05-14T18:13:49.994Z,101677.72
2023-05-14T18:16:19.979Z,101672.69
2023-05-14T18:18:47.991Z,101680.59
2023-05-14T18:21:15.996Z,101675.81
2023-05-14T18:23:43.796Z,101681.06
2023-05-14T18:26:11.947Z,101682.28
2023-05-14T18:28:39.976Z,101680.84
2023-05-14T18:31:07.856Z,101681.78
2023-05-14T18:33:37.019Z,101677.78
2023-05-14T18:36:05.617Z,101679.19
2023-05-14T18:38:33.523Z,101680.94
2023-05-14T18:41:01.449Z,101695.47
2023-05-14T18:43:29.250Z,101702.06
2023-05-14T18:45:57.088Z,101694.63
2023-05-14T18:48:25.351Z,101690.38
2023-05-14T18:50:54.678Z,101697.16
2023-05-14T18:53:22.593Z,101692.25
2023-05-14T18:55:50.846Z,101696.59
2023-05-14T18:58:18.731Z,101692.59
2023-05-14T19:00:47.602Z,101694.63
2023-05-14T19:03:15.749Z,101708.03
2023-05-14T19:05:44.113Z,101706.72
2023-05-14T19:08:13.517Z,101701.25
2023-05-14T19:10:41.926Z,101701.06
2023-05-14T19:13:09.991Z,101699.84
2023-05-14T19:15:39.281Z,101694.78
2023-05-14T19:18:07.953Z,101696.09
2023-05-14T19:20:36.784Z,101700.41
2023-05-14T19:23:04.841Z,101696.47
2023-05-14T19:25:34.914Z,101710.94
2023-05-14T19:28:03.720Z,101708.91
2023-05-14T19:30:32.161Z,101711.84
2023-05-14T19:33:00.082Z,101710.03
2023-05-14T19:35:28.220Z,101708.56
2023-05-14T19:37:56.426Z,101699.63
2023-05-14T19:40:24.248Z,101708.56
2023-05-14T19:42:53.431Z,101711.22
2023-05-14T19:45:23.460Z,101709.16
2023-05-14T19:47:52.372Z,101698.16
2023-05-14T19:50:20.559Z,101696.44
2023-05-14T19:52:48.891Z,101693.03
2023-05-14T19:55:17.584Z,101701.50
2023-05-14T19:57:46.469Z,101692.34
2023-05-14T20:00:16.894Z,101696.16
2023-05-14T20:02:47.842Z,101683.38
2023-05-14T20:05:16.824Z,101683.69
2023-05-14T20:07:44.821Z,101682.44
2023-05-14T20:10:12.787Z,101687.84
2023-05-14T20:12:41.093Z,101678.19
2023-05-14T20:15:10.207Z,101677.69
2023-05-14T20:17:40.113Z,101672.22
2023-05-14T20:20:09.877Z,101685.97
2023-05-14T20:22:38.243Z,101686.84
2023-05-14T20:25:07.003Z,101672.22
2023-05-14T20:27:34.885Z,101673.38
2023-05-14T20:30:02.837Z,101673.66
2023-05-14T20:32:30.618Z,101674.59
2023-05-14T20:35:01.873Z,101668.81
2023-05-14T20:37:30.924Z,101664.44
2023-05-14T20:39:59.090Z,101666.91
2023-05-14T20:42:27.711Z,101657.16
2023-05-14T20:44:55.748Z,101656.25
2023-05-14T20:47:30.386Z,101650.38
2023-05-14T20:49:59.949Z,101651.13
2023-05-14T20:52:27.970Z,101650.63
2023-05-14T20:54:55.818Z,101651.13
2023-05-14T20:57:23.582Z,101646.66
2023-05-14T20:59:52.234Z,101649.84
2023-05-14T21:02:20.071Z,101647.78
2023-05-14T21:04:48.070Z,101649.66
2023-05-14T21:07:17.428Z,101649.72
2023-05-14T21:09:50.679Z,101648.00
2023-05-14T21:12:18.760Z,101648.09
2023-05-14T21:14:46.629Z,101647.50
2023-05-14T21:17:14.449Z,101648.19
2023-05-14T21:19:42.222Z,101653.81
2023-05-14T21:22:09.956Z,101651.28
2023-05-14T21:24:39.201Z,101640.28
2023-05-14T21:27:07.165Z,101641.53
2023-05-14T21:29:34.943Z,101641.47
2023-05-14T21:32:02.930Z,101638.63
2023-05-14T21:34:32.023Z,101641.28
2023-05-14T21:37:00.014Z,101646.72
2023-05-14T21:39:28.026Z,101646.81
2023-05-14T21:41:57.267Z,101646.03
2023-05-14T21:44:25.269Z,101635.47
2023-05-14T21:46:53.028Z,101643.41
2023-05-14T21:49:20.904Z,101632.59
2023-05-14T21:51:52.819Z,101636.63
2023-05-14T21:54:20.931Z,101634.34
2023-05-14T21:56:48.911Z,101637.41
2023-05-14T21:59:18.162Z,101626.41
2023-05-14T22:02:05.701Z,101625.75
2023-05-14T22:04:35.247Z,101612.16
2023-05-14T22:07:03.380Z,101618.53
2023-05-14T22:09:31.346Z,101617.19
2023-05-14T22:11:59.232Z,101612.72
2023-05-14T22:14:28.464Z,101618.63
2023-05-14T22:16:56.739Z,101608.38
2023-05-14T22:19:25.751Z,101615.50
2023-05-14T22:21:53.565Z,101603.91
2023-05-14T22:24:21.658Z,101603.63
2023-05-14T22:26:49.433Z,101591.66
2023-05-14T22:29:17.185Z,101594.31
2023-05-14T22:31:46.317Z,101589.84
2023-05-14T22:34:14.249Z,101588.34
2023-05-14T22:36:42.005Z,101582.28
2023-05-14T22:39:11.410Z,101586.72
2023-05-14T22:41:41.179Z,101577.13
2023-05-14T22:44:08.980Z,101575.25
2023-05-14T22:46:36.903Z,101578.94
2023-05-14T22:49:06.023Z,101569.09
2023-05-14T22:51:33.773Z,101561.59
2023-05-14T22:54:01.590Z,101555.44
2023-05-14T22:56:29.519Z,101553.91
2023-05-14T22:58:57.553Z,101557.69
2023-05-14T23:01:25.397Z,101550.88
2023-05-14T23:03:53.200Z,101557.59
2023-05-14T23:06:22.326Z,101550.66
2023-05-14T23:08:50.075Z,101546.34
2023-05-14T23:11:18.127Z,101538.28
2023-05-14T23:13:46.151Z,101544.31
2023-05-14T23:16:14.215Z,101542.66
2023-05-14T23:18:42.286Z,101544.00
2023-05-14T23:21:10.172Z,101544.44
2023-05-14T23:23:39.286Z,101537.97
2023-05-14T23:26:07.321Z,101551.81
2023-05-14T23:28:35.033Z,101543.25
2023-05-14T23:31:03.062Z,101542.25
2023-05-14T23:33:30.923Z,101532.03
2023-05-14T23:35:58.980Z,101535.31
2023-05-14T23:38:26.730Z,101530.31
2023-05-14T23:40:55.849Z,101522.25
2023-05-14T23:43:23.667Z,101520.38
2023-05-14T23:45:51.500Z,101518.00
2023-05-14T23:48:19.302Z,101521.69
2023-05-14T23:50:47.081Z,101514.06
2023-05-14T23:53:14.844Z,101516.03
2023-05-14T23:55:42.698Z,101510.44
2023-05-14T23:58:11.952Z,101514.97
